Weather observations for the past three days for
Chatham, Chatham Municipal Airport
Metric (Imperial)
Date Time (edt) Wind (kph) Vis. (km) Weather Sky Cond. Temperature (ºC) Relative Humidity Wind Chill (°C) Heat Index (°C) Pressure Precipitation (cm)
Air Dwpt 6 hour altimeter (cm) sea level (mb) 1 hr 3 hr 6 hr
Max. Min.
06 04:52 SW 13 G 28 16.09 Overcast OVC015 12.8 11.1 90% 76.1 1014.6
06 03:52 SW 15 G 33 16.09 Overcast FEW012 OVC017 12.8 11.1 90% 76.07 1014.4
06 02:52 SW 19 G 31 16.09 Overcast BKN011 OVC026 12.8 11.1 90% 76.07 1014.4
06 01:52 SW 17 G 31 14.48 Overcast BKN011 OVC023 12.8 11.7 13.3 12.8 93% 76.1 1014.6
06 00:52 SW 20 G 41 16.09 Overcast SCT007 OVC020 12.8 11.7 93% 76.12 1014.8
05 23:52 SW 22 G 37 16.09 Mostly Cloudy FEW009 BKN020 12.8 11.1 90% 76.1 1014.6
05 22:52 SW 20 G 44 16.09 Fair CLR 12.8 11.1 90% 76.1 1014.5
05 21:52 SW 15 16.09 Fair CLR 12.8 10.6 87% 76.1 1014.7
05 20:52 SW 22 G 43 16.09 Fair CLR 12.8 10.6 87% 76 1013.4
05 19:52 SW 17 G 44 16.09 Fair CLR 12.8 9.4 15 12.8 80% 75.97 1012.8
05 18:52 SW 22 G 39 16.09 Fair CLR 13.3 10 81% 75.95 1012.5
05 17:52 SW 20 G 46 16.09 Fair CLR 13.9 10.6 81% 75.92 1012.1
05 16:52 SW 22 G 48 16.09 Fair CLR 14.4 10.6 78% 75.9 1012.0
05 15:52 SW 26 G 46 16.09 Fair CLR 15 10.6 75% 75.92 1012.3
05 14:52 SW 22 G 44 16.09 Fair CLR 15 10.6 75% 75.95 1012.6
05 13:52 SW 24 G 44 16.09 Fair CLR 15 10.6 15 12.2 75% 76 1013.2
05 12:52 SW 19 G 43 16.09 Fair CLR 14.4 10.6 78% 76.02 1013.5
05 11:52 SW 20 G 41 16.09 Fair CLR 15 10.6 75% 76.05 1013.9
05 10:52 SW 19 G 44 16.09 Fair CLR 13.9 10.6 81% 76.02 1013.6
05 09:52 SW 22 G 46 16.09 Fair CLR 13.9 10 78% 76 1013.3
05 08:52 SW 15 G 35 16.09 Fair CLR 13.3 10 81% 76.02 1013.5
05 07:52 S 19 G 28 16.09 Fair CLR 12.2 9.4 12.2 10.6 83% 76.02 1013.5
05 06:52 S 15 G 28 16.09 Fair CLR 11.1 8.9 86% 76 1013.3
05 05:52 S 15 16.09 Fair CLR 10.6 8.9 89% 75.97 1013.0
05 04:52 SW 11 16.09 Fair CLR 10.6 8.9 89% 75.97 1012.8
05 03:52 SW 11 16.09 Fair CLR 10.6 8.9 89% 75.97 1013.0
05 02:52 SW 13 16.09 Fair CLR 11.1 8.9 86% 75.97 1012.9
05 01:52 SW 15 G 35 16.09 Fair CLR 11.1 8.9 11.1 10.6 86% 75.97 1013.0
05 00:52 SW 17 G 31 16.09 Fair CLR 11.1 8.9 86% 75.97 1013.0
04 23:52 SW 15 G 33 16.09 Fair CLR 11.1 8.3 83% 76.02 1013.5
04 22:52 SW 17 G 37 16.09 Fair CLR 11.1 7.8 80% 76.02 1013.6
04 21:52 SW 15 G 41 16.09 Fair CLR 11.1 7.2 77% 76 1013.4
04 20:52 SW 17 G 37 16.09 Fair CLR 11.1 7.8 80% 75.95 1012.6
04 19:52 SW 15 G 41 16.09 Fair CLR 11.1 6.7 14.4 11.1 75% 75.9 1011.8
04 18:52 SW 20 G 43 16.09 Fair CLR 11.7 6.7 72% 75.84 1011.2
04 16:52 SW 22 G 50 16.09 Fair CLR 12.8 6.7 67% 75.84 1011.3
04 15:52 SW 26 G 54 16.09 Fair CLR 13.9 7.2 64% 75.82 1010.9
04 14:52 SW 30 G 61 16.09 Fair CLR 13.9 7.8 67% 75.84 1011.2
04 13:52 SW 24 G 41 16.09 Fair CLR 14.4 7.8 15 11.7 65% 75.84 1011.2
04 12:52 SW 19 G 48 16.09 Fair CLR 14.4 7.8 65% 75.87 1011.4
04 11:52 SW 24 G 48 16.09 Fair CLR 15 5.6 54% 75.87 1011.5
04 10:52 SW 20 G 52 16.09 Fair CLR 14.4 4.4 51% 75.9 1012.0
04 09:52 SW 20 G 46 16.09 Fair CLR 13.3 5.6 60% 75.92 1012.2
04 08:52 SW 20 G 46 16.09 Fair CLR 12.8 5.6 62% 75.92 1012.3
04 07:52 SW 11 16.09 Partly Cloudy SCT100 11.7 6.7 11.7 8.3 72% 75.92 1012.4
04 06:52 SW 13 G 28 16.09 Overcast BKN070 OVC100 10.6 6.1 74% 75.92 1012.4
04 05:52 SW 9 16.09 Overcast BKN070 OVC100 10 6.1 77% 9 75.9 1011.9
04 04:52 SW 9 16.09 Overcast OVC070 9.4 3.9 69% 8 75.9 1011.8
04 03:52 SW 9 16.09 Overcast OVC090 8.9 2.8 66% 8 75.87 1011.7
04 02:52 W 9 16.09 Fair CLR 8.3 4.4 77% 7 75.84 1011.4
04 01:52 SW 13 16.09 A Few Clouds FEW080 8.9 1.7 10 5 61% 7 75.84 1011.3
04 00:52 W 6 16.09 Fair CLR 6.1 -0.6 63% 75.84 1011.3
03 23:52 W 7 16.09 Fair CLR 6.7 -1.7 55% 6 75.82 1011.1
03 22:52 W 6 16.09 Fair CLR 6.7 -2.2 53% 75.79 1010.7
03 21:52 W 6 16.09 Fair CLR 7.2 -1.1 56% 75.79 1010.6
03 20:52 Vrbl 7 16.09 Mostly Cloudy BKN075 9.4 -1.7 46% 9 75.72 1009.6
03 19:52 W 9 16.09 Overcast OVC080 9.4 0 11.1 7.2 52% 8 75.64 1008.6
03 18:52 Vrbl 7 16.09 Overcast OVC080 9.4 1.7 59% 9 75.57 1007.5
03 17:52 Vrbl 7 16.09 Mostly Cloudy BKN070 10.6 0.6 50% 75.49 1006.6
03 16:52 Vrbl 9 16.09 Overcast SCT065 OVC090 10.6 2.2 56% 75.44 1005.9
03 15:52 N 15 16.09 Overcast FEW040 BKN049 OVC055 8.9 2.2 63% 7 75.41 1005.5
03 14:52 NW 19 G 39 16.09 Overcast OVC034 7.8 4.4 79% 5 75.41 1005.6
03 13:52 NW 15 G 37 16.09 Overcast FEW017 SCT026 OVC032 7.2 5 8.3 6.1 86% 5 75.39 1005.3 0.08 0.23
03 12:52 NW 22 G 41 4.83 Rain Fog/Mist FEW012 BKN020 OVC033 6.1 4.4 89% 3 75.36 1005.0 0.05
03 11:52 NW 13 12.87 Light Rain BKN012 BKN017 OVC021 7.2 5.6 90% 5 75.31 1004.2 0.08
03 10:52 NW 13 G 33 16.09 Overcast BKN011 BKN021 OVC039 8.3 6.1 86% 6 75.31 1004.1 0.03
03 09:52 Calm 16.09 Overcast BKN013 OVC017 7.8 6.1 89% 75.29 1003.8
03 08:52 NW 13 G 28 16.09 Overcast BKN010 BKN026 OVC070 7.2 6.1 93% 5 75.34 1004.4 0.03
03 07:52 Calm 12.87 Light Rain SCT026 BKN039 OVC048 6.7 5.6 8.9 6.7 93% 75.39 1005.4 0.08 0.61
03 06:52 Vrbl 9 14.48 Light Rain FEW037 BKN045 OVC050 7.2 6.7 97% 6 75.39 1005.4 0.1
03 05:52 Vrbl 11 11.27 Light Rain BKN008 OVC045 7.8 7.2 96% 6 75.44 1005.9 0.13
Date Time (edt) Wind (kph) Vis. (km) Weather Sky Cond. Air Dwpt Max. Min. Relative Humidity Wind Chill (°C) Heat Index (°C) altimeter (cm) sea level (mb) 1 hr 3 hr 6 hr
6 hour
Temperature (ºC) Pressure Precipitation (cm)